sensor_id;sensor_type;location;lat;lon;timestamp;P1;durP1;ratioP1;P2;durP2;ratioP2
6529;SDS011;3298;42.688;23.366;2022-07-23T00:01:05;6.50;;;5.93;;
6529;SDS011;3298;42.688;23.366;2022-07-23T00:03:32;9.77;;;7.77;;
6529;SDS011;3298;42.688;23.366;2022-07-23T00:06:00;8.47;;;7.63;;
6529;SDS011;3298;42.688;23.366;2022-07-23T00:08:27;13.87;;;7.93;;
6529;SDS011;3298;42.688;23.366;2022-07-23T00:10:53;11.90;;;7.97;;
6529;SDS011;3298;42.688;23.366;2022-07-23T00:13:20;11.20;;;8.07;;
6529;SDS011;3298;42.688;23.366;2022-07-23T00:15:47;8.77;;;6.10;;
6529;SDS011;3298;42.688;23.366;2022-07-23T00:18:15;9.00;;;6.83;;
6529;SDS011;3298;42.688;23.366;2022-07-23T00:20:42;11.07;;;7.40;;
6529;SDS011;3298;42.688;23.366;2022-07-23T00:23:09;9.60;;;6.50;;
6529;SDS011;3298;42.688;23.366;2022-07-23T00:25:35;9.40;;;7.30;;
6529;SDS011;3298;42.688;23.366;2022-07-23T00:28:02;10.27;;;5.83;;
6529;SDS011;3298;42.688;23.366;2022-07-23T00:30:30;6.23;;;5.07;;
6529;SDS011;3298;42.688;23.366;2022-07-23T00:32:59;5.37;;;4.80;;
6529;SDS011;3298;42.688;23.366;2022-07-23T00:35:30;5.23;;;4.00;;
6529;SDS011;3298;42.688;23.366;2022-07-23T00:37:58;7.23;;;4.73;;
6529;SDS011;3298;42.688;23.366;2022-07-23T00:40:29;4.50;;;4.07;;
6529;SDS011;3298;42.688;23.366;2022-07-23T00:42:56;7.00;;;3.87;;
6529;SDS011;3298;42.688;23.366;2022-07-23T00:45:24;5.37;;;4.37;;
6529;SDS011;3298;42.688;23.366;2022-07-23T00:47:51;6.57;;;3.37;;
6529;SDS011;3298;42.688;23.366;2022-07-23T00:50:17;3.80;;;3.57;;
6529;SDS011;3298;42.688;23.366;2022-07-23T00:52:46;3.90;;;3.50;;
6529;SDS011;3298;42.688;23.366;2022-07-23T00:55:13;3.97;;;3.60;;
6529;SDS011;3298;42.688;23.366;2022-07-23T00:57:40;3.73;;;3.43;;
6529;SDS011;3298;42.688;23.366;2022-07-23T01:00:09;4.00;;;3.60;;
6529;SDS011;3298;42.688;23.366;2022-07-23T01:02:38;4.77;;;4.17;;
6529;SDS011;3298;42.688;23.366;2022-07-23T01:05:05;3.93;;;3.63;;
6529;SDS011;3298;42.688;23.366;2022-07-23T01:07:33;4.97;;;4.47;;
6529;SDS011;3298;42.688;23.366;2022-07-23T01:10:01;4.43;;;4.03;;
6529;SDS011;3298;42.688;23.366;2022-07-23T01:12:29;5.27;;;4.40;;
6529;SDS011;3298;42.688;23.366;2022-07-23T01:14:56;9.67;;;4.13;;
6529;SDS011;3298;42.688;23.366;2022-07-23T01:17:24;3.77;;;3.57;;
6529;SDS011;3298;42.688;23.366;2022-07-23T01:19:51;4.37;;;3.93;;
6529;SDS011;3298;42.688;23.366;2022-07-23T01:22:19;6.23;;;3.77;;
6529;SDS011;3298;42.688;23.366;2022-07-23T01:24:47;4.30;;;3.93;;
6529;SDS011;3298;42.688;23.366;2022-07-23T01:27:14;6.07;;;3.53;;
6529;SDS011;3298;42.688;23.366;2022-07-23T01:29:42;6.17;;;3.93;;
6529;SDS011;3298;42.688;23.366;2022-07-23T01:32:09;7.70;;;3.33;;
6529;SDS011;3298;42.688;23.366;2022-07-23T01:34:36;3.57;;;3.37;;
6529;SDS011;3298;42.688;23.366;2022-07-23T01:37:03;4.50;;;3.27;;
6529;SDS011;3298;42.688;23.366;2022-07-23T01:39:29;8.17;;;4.23;;
6529;SDS011;3298;42.688;23.366;2022-07-23T01:41:58;4.37;;;3.83;;
6529;SDS011;3298;42.688;23.366;2022-07-23T01:44:24;5.47;;;3.50;;
6529;SDS011;3298;42.688;23.366;2022-07-23T01:46:51;5.33;;;3.50;;
6529;SDS011;3298;42.688;23.366;2022-07-23T01:49:18;4.10;;;3.80;;
6529;SDS011;3298;42.688;23.366;2022-07-23T01:51:45;3.70;;;3.40;;
6529;SDS011;3298;42.688;23.366;2022-07-23T01:54:25;5.47;;;3.57;;
6529;SDS011;3298;42.688;23.366;2022-07-23T01:56:52;4.27;;;3.97;;
6529;SDS011;3298;42.688;23.366;2022-07-23T01:59:20;6.43;;;3.97;;
6529;SDS011;3298;42.688;23.366;2022-07-23T02:01:47;5.07;;;4.57;;
6529;SDS011;3298;42.688;23.366;2022-07-23T02:04:15;4.07;;;3.77;;
6529;SDS011;3298;42.688;23.366;2022-07-23T02:06:42;6.10;;;4.13;;
6529;SDS011;3298;42.688;23.366;2022-07-23T02:09:09;3.60;;;3.30;;
6529;SDS011;3298;42.688;23.366;2022-07-23T02:11:36;6.70;;;4.60;;
6529;SDS011;3298;42.688;23.366;2022-07-23T02:14:03;4.20;;;3.90;;
6529;SDS011;3298;42.688;23.366;2022-07-23T02:16:31;6.13;;;4.00;;
6529;SDS011;3298;42.688;23.366;2022-07-23T02:18:58;4.47;;;4.17;;
6529;SDS011;3298;42.688;23.366;2022-07-23T02:21:24;4.50;;;4.10;;
6529;SDS011;3298;42.688;23.366;2022-07-23T02:23:51;6.60;;;5.00;;
6529;SDS011;3298;42.688;23.366;2022-07-23T02:26:18;4.00;;;3.60;;
6529;SDS011;3298;42.688;23.366;2022-07-23T02:28:45;4.73;;;4.33;;
6529;SDS011;3298;42.688;23.366;2022-07-23T02:31:12;4.73;;;4.30;;
6529;SDS011;3298;42.688;23.366;2022-07-23T02:33:40;4.97;;;3.90;;
6529;SDS011;3298;42.688;23.366;2022-07-23T02:36:07;5.93;;;4.00;;
6529;SDS011;3298;42.688;23.366;2022-07-23T02:38:34;4.67;;;4.30;;
6529;SDS011;3298;42.688;23.366;2022-07-23T02:41:01;8.33;;;4.13;;
6529;SDS011;3298;42.688;23.366;2022-07-23T02:43:27;3.73;;;3.43;;
6529;SDS011;3298;42.688;23.366;2022-07-23T02:45:54;4.47;;;4.07;;
6529;SDS011;3298;42.688;23.366;2022-07-23T02:48:21;5.07;;;4.67;;
6529;SDS011;3298;42.688;23.366;2022-07-23T02:50:49;8.07;;;6.47;;
6529;SDS011;3298;42.688;23.366;2022-07-23T02:53:16;7.47;;;6.13;;
6529;SDS011;3298;42.688;23.366;2022-07-23T02:55:43;7.07;;;5.97;;
6529;SDS011;3298;42.688;23.366;2022-07-23T02:58:10;7.93;;;5.50;;
6529;SDS011;3298;42.688;23.366;2022-07-23T03:00:37;10.73;;;6.53;;
6529;SDS011;3298;42.688;23.366;2022-07-23T03:03:03;6.80;;;6.27;;
6529;SDS011;3298;42.688;23.366;2022-07-23T03:05:31;8.67;;;5.50;;
6529;SDS011;3298;42.688;23.366;2022-07-23T03:07:59;6.90;;;5.93;;
6529;SDS011;3298;42.688;23.366;2022-07-23T03:10:27;6.40;;;5.77;;
6529;SDS011;3298;42.688;23.366;2022-07-23T03:12:53;12.87;;;5.83;;
6529;SDS011;3298;42.688;23.366;2022-07-23T03:15:20;10.40;;;6.53;;
6529;SDS011;3298;42.688;23.366;2022-07-23T03:17:47;7.50;;;4.73;;
6529;SDS011;3298;42.688;23.366;2022-07-23T03:20:14;5.37;;;4.97;;
6529;SDS011;3298;42.688;23.366;2022-07-23T03:22:40;9.37;;;6.60;;
6529;SDS011;3298;42.688;23.366;2022-07-23T03:25:09;10.00;;;6.13;;
6529;SDS011;3298;42.688;23.366;2022-07-23T03:27:36;16.17;;;6.70;;
6529;SDS011;3298;42.688;23.366;2022-07-23T03:30:03;7.90;;;5.50;;
6529;SDS011;3298;42.688;23.366;2022-07-23T03:32:30;9.23;;;5.50;;
6529;SDS011;3298;42.688;23.366;2022-07-23T03:34:57;8.17;;;5.50;;
6529;SDS011;3298;42.688;23.366;2022-07-23T03:37:24;6.60;;;4.97;;
6529;SDS011;3298;42.688;23.366;2022-07-23T03:39:51;8.93;;;5.83;;
6529;SDS011;3298;42.688;23.366;2022-07-23T03:42:19;5.33;;;5.03;;
6529;SDS011;3298;42.688;23.366;2022-07-23T03:44:45;8.17;;;5.43;;
6529;SDS011;3298;42.688;23.366;2022-07-23T03:47:12;5.87;;;5.30;;
6529;SDS011;3298;42.688;23.366;2022-07-23T03:49:39;6.53;;;5.93;;
6529;SDS011;3298;42.688;23.366;2022-07-23T03:52:06;10.40;;;5.20;;
6529;SDS011;3298;42.688;23.366;2022-07-23T03:54:33;7.57;;;5.93;;
6529;SDS011;3298;42.688;23.366;2022-07-23T03:57:00;7.10;;;5.20;;
6529;SDS011;3298;42.688;23.366;2022-07-23T03:59:28;8.10;;;5.60;;
6529;SDS011;3298;42.688;23.366;2022-07-23T04:01:55;5.87;;;5.37;;
6529;SDS011;3298;42.688;23.366;2022-07-23T04:04:21;10.57;;;5.60;;
6529;SDS011;3298;42.688;23.366;2022-07-23T04:06:48;8.57;;;6.00;;
6529;SDS011;3298;42.688;23.366;2022-07-23T04:09:15;8.70;;;5.67;;
6529;SDS011;3298;42.688;23.366;2022-07-23T04:11:42;6.53;;;5.87;;
6529;SDS011;3298;42.688;23.366;2022-07-23T04:14:09;13.50;;;5.87;;
6529;SDS011;3298;42.688;23.366;2022-07-23T04:16:37;6.53;;;5.73;;
6529;SDS011;3298;42.688;23.366;2022-07-23T04:19:03;6.50;;;5.50;;
6529;SDS011;3298;42.688;23.366;2022-07-23T04:21:30;8.43;;;5.27;;
6529;SDS011;3298;42.688;23.366;2022-07-23T04:23:57;8.37;;;5.00;;
6529;SDS011;3298;42.688;23.366;2022-07-23T04:26:24;10.17;;;5.80;;
6529;SDS011;3298;42.688;23.366;2022-07-23T04:28:51;9.17;;;4.60;;
6529;SDS011;3298;42.688;23.366;2022-07-23T04:31:17;6.00;;;5.10;;
6529;SDS011;3298;42.688;23.366;2022-07-23T04:33:46;5.30;;;4.93;;
6529;SDS011;3298;42.688;23.366;2022-07-23T04:36:12;6.27;;;4.97;;
6529;SDS011;3298;42.688;23.366;2022-07-23T04:38:39;8.37;;;5.20;;
6529;SDS011;3298;42.688;23.366;2022-07-23T04:41:06;9.83;;;4.83;;
6529;SDS011;3298;42.688;23.366;2022-07-23T04:43:33;7.23;;;4.73;;
6529;SDS011;3298;42.688;23.366;2022-07-23T04:46:00;9.87;;;4.97;;
6529;SDS011;3298;42.688;23.366;2022-07-23T04:48:26;7.93;;;4.50;;
6529;SDS011;3298;42.688;23.366;2022-07-23T04:50:54;8.90;;;5.13;;
6529;SDS011;3298;42.688;23.366;2022-07-23T04:53:21;14.33;;;5.07;;
6529;SDS011;3298;42.688;23.366;2022-07-23T04:55:48;9.10;;;5.43;;
6529;SDS011;3298;42.688;23.366;2022-07-23T04:58:15;8.77;;;4.90;;
6529;SDS011;3298;42.688;23.366;2022-07-23T05:00:42;5.27;;;4.87;;
6529;SDS011;3298;42.688;23.366;2022-07-23T05:03:08;5.70;;;5.20;;
6529;SDS011;3298;42.688;23.366;2022-07-23T05:05:35;6.27;;;5.80;;
6529;SDS011;3298;42.688;23.366;2022-07-23T05:08:04;11.07;;;4.90;;
6529;SDS011;3298;42.688;23.366;2022-07-23T05:10:30;6.30;;;5.70;;
6529;SDS011;3298;42.688;23.366;2022-07-23T05:12:57;6.70;;;5.20;;
6529;SDS011;3298;42.688;23.366;2022-07-23T05:15:24;5.23;;;4.70;;
6529;SDS011;3298;42.688;23.366;2022-07-23T05:17:51;6.50;;;4.80;;
6529;SDS011;3298;42.688;23.366;2022-07-23T05:20:18;6.97;;;4.50;;
6529;SDS011;3298;42.688;23.366;2022-07-23T05:22:45;5.37;;;4.77;;
6529;SDS011;3298;42.688;23.366;2022-07-23T05:25:13;8.73;;;5.60;;
6529;SDS011;3298;42.688;23.366;2022-07-23T05:27:39;5.83;;;5.33;;
6529;SDS011;3298;42.688;23.366;2022-07-23T05:30:06;5.60;;;5.13;;
6529;SDS011;3298;42.688;23.366;2022-07-23T05:32:34;7.30;;;5.32;;
6529;SDS011;3298;42.688;23.366;2022-07-23T05:35:01;4.88;;;4.38;;
6529;SDS011;3298;42.688;23.366;2022-07-23T05:37:29;5.60;;;4.90;;
6529;SDS011;3298;42.688;23.366;2022-07-23T05:39:55;6.78;;;5.13;;
6529;SDS011;3298;42.688;23.366;2022-07-23T05:42:27;5.35;;;4.93;;
6529;SDS011;3298;42.688;23.366;2022-07-23T05:44:54;4.72;;;4.43;;
6529;SDS011;3298;42.688;23.366;2022-07-23T05:47:20;10.13;;;5.25;;
6529;SDS011;3298;42.688;23.366;2022-07-23T05:49:47;8.50;;;4.35;;
6529;SDS011;3298;42.688;23.366;2022-07-23T05:52:14;5.90;;;5.30;;
6529;SDS011;3298;42.688;23.366;2022-07-23T05:54:41;5.68;;;5.15;;
6529;SDS011;3298;42.688;23.366;2022-07-23T05:57:08;5.05;;;4.68;;
6529;SDS011;3298;42.688;23.366;2022-07-23T05:59:36;7.93;;;4.95;;
6529;SDS011;3298;42.688;23.366;2022-07-23T06:02:03;4.78;;;4.55;;
6529;SDS011;3298;42.688;23.366;2022-07-23T06:04:30;5.43;;;4.93;;
6529;SDS011;3298;42.688;23.366;2022-07-23T06:06:56;5.03;;;4.63;;
6529;SDS011;3298;42.688;23.366;2022-07-23T06:09:23;7.82;;;4.45;;
6529;SDS011;3298;42.688;23.366;2022-07-23T06:11:50;4.72;;;4.35;;
6529;SDS011;3298;42.688;23.366;2022-07-23T06:14:17;7.18;;;4.20;;
6529;SDS011;3298;42.688;23.366;2022-07-23T06:16:45;8.77;;;4.80;;
6529;SDS011;3298;42.688;23.366;2022-07-23T06:19:12;6.78;;;4.20;;
6529;SDS011;3298;42.688;23.366;2022-07-23T06:21:38;10.65;;;5.20;;
6529;SDS011;3298;42.688;23.366;2022-07-23T06:24:05;5.37;;;4.63;;
6529;SDS011;3298;42.688;23.366;2022-07-23T06:26:32;7.90;;;4.70;;
6529;SDS011;3298;42.688;23.366;2022-07-23T06:28:59;5.30;;;4.60;;
6529;SDS011;3298;42.688;23.366;2022-07-23T06:31:26;4.67;;;4.00;;
6529;SDS011;3298;42.688;23.366;2022-07-23T06:33:54;4.57;;;4.27;;
6529;SDS011;3298;42.688;23.366;2022-07-23T06:36:21;5.33;;;4.00;;
6529;SDS011;3298;42.688;23.366;2022-07-23T06:38:48;5.13;;;4.73;;
6529;SDS011;3298;42.688;23.366;2022-07-23T06:41:14;5.90;;;5.27;;
6529;SDS011;3298;42.688;23.366;2022-07-23T06:43:41;6.63;;;5.20;;
6529;SDS011;3298;42.688;23.366;2022-07-23T06:46:08;5.50;;;4.30;;
6529;SDS011;3298;42.688;23.366;2022-07-23T06:48:35;8.93;;;4.50;;
6529;SDS011;3298;42.688;23.366;2022-07-23T06:51:03;8.83;;;4.57;;
6529;SDS011;3298;42.688;23.366;2022-07-23T06:53:30;8.53;;;4.97;;
6529;SDS011;3298;42.688;23.366;2022-07-23T06:55:57;6.80;;;4.13;;
6529;SDS011;3298;42.688;23.366;2022-07-23T06:58:24;4.90;;;4.53;;
6529;SDS011;3298;42.688;23.366;2022-07-23T07:00:50;6.03;;;5.33;;
6529;SDS011;3298;42.688;23.366;2022-07-23T07:03:18;5.50;;;5.10;;
6529;SDS011;3298;42.688;23.366;2022-07-23T07:05:44;7.47;;;4.93;;
6529;SDS011;3298;42.688;23.366;2022-07-23T07:08:13;6.40;;;5.83;;
6529;SDS011;3298;42.688;23.366;2022-07-23T07:10:40;7.20;;;6.50;;
6529;SDS011;3298;42.688;23.366;2022-07-23T07:13:06;8.80;;;5.83;;
6529;SDS011;3298;42.688;23.366;2022-07-23T07:15:33;10.43;;;5.60;;
6529;SDS011;3298;42.688;23.366;2022-07-23T07:18:00;7.50;;;5.40;;
6529;SDS011;3298;42.688;23.366;2022-07-23T07:20:27;7.83;;;5.77;;
6529;SDS011;3298;42.688;23.366;2022-07-23T07:22:54;11.33;;;5.13;;
6529;SDS011;3298;42.688;23.366;2022-07-23T07:25:22;10.13;;;5.23;;
6529;SDS011;3298;42.688;23.366;2022-07-23T07:27:49;4.93;;;4.63;;
6529;SDS011;3298;42.688;23.366;2022-07-23T07:30:16;11.37;;;4.47;;
6529;SDS011;3298;42.688;23.366;2022-07-23T07:32:42;5.47;;;4.70;;
6529;SDS011;3298;42.688;23.366;2022-07-23T07:35:09;8.17;;;4.10;;
6529;SDS011;3298;42.688;23.366;2022-07-23T07:37:36;7.40;;;4.13;;
6529;SDS011;3298;42.688;23.366;2022-07-23T07:40:03;5.43;;;4.97;;
6529;SDS011;3298;42.688;23.366;2022-07-23T07:42:32;11.50;;;4.77;;
6529;SDS011;3298;42.688;23.366;2022-07-23T07:44:59;11.20;;;4.40;;
6529;SDS011;3298;42.688;23.366;2022-07-23T07:47:26;6.00;;;5.40;;
6529;SDS011;3298;42.688;23.366;2022-07-23T07:49:53;10.47;;;6.37;;
6529;SDS011;3298;42.688;23.366;2022-07-23T07:52:19;5.77;;;4.40;;
6529;SDS011;3298;42.688;23.366;2022-07-23T07:54:46;8.87;;;5.47;;
6529;SDS011;3298;42.688;23.366;2022-07-23T07:57:13;5.60;;;5.10;;
6529;SDS011;3298;42.688;23.366;2022-07-23T07:59:41;6.37;;;4.27;;
6529;SDS011;3298;42.688;23.366;2022-07-23T08:02:08;6.87;;;5.07;;
6529;SDS011;3298;42.688;23.366;2022-07-23T08:04:35;15.63;;;5.67;;
6529;SDS011;3298;42.688;23.366;2022-07-23T08:07:02;13.63;;;6.10;;
6529;SDS011;3298;42.688;23.366;2022-07-23T08:09:29;6.33;;;5.73;;
6529;SDS011;3298;42.688;23.366;2022-07-23T08:11:55;7.73;;;5.57;;
6529;SDS011;3298;42.688;23.366;2022-07-23T08:14:22;6.23;;;5.23;;
6529;SDS011;3298;42.688;23.366;2022-07-23T08:16:50;10.90;;;6.90;;
6529;SDS011;3298;42.688;23.366;2022-07-23T08:19:17;12.40;;;5.03;;
6529;SDS011;3298;42.688;23.366;2022-07-23T08:21:44;6.47;;;5.30;;
6529;SDS011;3298;42.688;23.366;2022-07-23T08:24:10;12.97;;;6.73;;
6529;SDS011;3298;42.688;23.366;2022-07-23T08:26:37;14.87;;;6.03;;
6529;SDS011;3298;42.688;23.366;2022-07-23T08:29:04;5.73;;;4.53;;
6529;SDS011;3298;42.688;23.366;2022-07-23T08:31:31;6.57;;;4.77;;
6529;SDS011;3298;42.688;23.366;2022-07-23T08:34:00;7.70;;;4.57;;
6529;SDS011;3298;42.688;23.366;2022-07-23T08:36:27;10.83;;;4.37;;
6529;SDS011;3298;42.688;23.366;2022-07-23T08:38:57;5.32;;;4.82;;
6529;SDS011;3298;42.688;23.366;2022-07-23T08:41:24;7.65;;;4.88;;
6529;SDS011;3298;42.688;23.366;2022-07-23T08:43:50;5.88;;;4.68;;
6529;SDS011;3298;42.688;23.366;2022-07-23T08:46:18;7.90;;;3.97;;
6529;SDS011;3298;42.688;23.366;2022-07-23T08:48:47;4.15;;;3.85;;
6529;SDS011;3298;42.688;23.366;2022-07-23T08:51:16;4.75;;;4.35;;
6529;SDS011;3298;42.688;23.366;2022-07-23T08:53:43;6.18;;;4.90;;
6529;SDS011;3298;42.688;23.366;2022-07-23T08:56:11;5.05;;;4.65;;
6529;SDS011;3298;42.688;23.366;2022-07-23T08:58:38;6.20;;;4.28;;
6529;SDS011;3298;42.688;23.366;2022-07-23T09:01:05;5.03;;;4.40;;
6529;SDS011;3298;42.688;23.366;2022-07-23T09:03:32;6.57;;;4.10;;
6529;SDS011;3298;42.688;23.366;2022-07-23T09:06:00;10.65;;;4.72;;
6529;SDS011;3298;42.688;23.366;2022-07-23T09:08:35;10.40;;;4.82;;
6529;SDS011;3298;42.688;23.366;2022-07-23T09:11:04;5.57;;;4.47;;
6529;SDS011;3298;42.688;23.366;2022-07-23T09:13:36;4.15;;;3.75;;
6529;SDS011;3298;42.688;23.366;2022-07-23T09:16:06;5.63;;;5.15;;
6529;SDS011;3298;42.688;23.366;2022-07-23T09:18:38;6.50;;;5.00;;
6529;SDS011;3298;42.688;23.366;2022-07-23T09:21:07;9.25;;;4.32;;
6529;SDS011;3298;42.688;23.366;2022-07-23T09:23:40;6.57;;;4.40;;
6529;SDS011;3298;42.688;23.366;2022-07-23T09:26:24;11.43;;;4.95;;
6529;SDS011;3298;42.688;23.366;2022-07-23T09:28:56;7.22;;;5.50;;
6529;SDS011;3298;42.688;23.366;2022-07-23T09:31:24;7.35;;;5.15;;
6529;SDS011;3298;42.688;23.366;2022-07-23T09:34:02;4.80;;;3.95;;
6529;SDS011;3298;42.688;23.366;2022-07-23T09:36:36;4.03;;;3.72;;
6529;SDS011;3298;42.688;23.366;2022-07-23T09:39:06;6.85;;;3.75;;
6529;SDS011;3298;42.688;23.366;2022-07-23T09:41:34;4.63;;;4.07;;
6529;SDS011;3298;42.688;23.366;2022-07-23T09:44:10;4.03;;;3.72;;
6529;SDS011;3298;42.688;23.366;2022-07-23T09:46:39;4.15;;;3.75;;
6529;SDS011;3298;42.688;23.366;2022-07-23T09:49:14;9.43;;;4.10;;
6529;SDS011;3298;42.688;23.366;2022-07-23T09:51:47;5.95;;;3.80;;
6529;SDS011;3298;42.688;23.366;2022-07-23T09:54:24;5.20;;;4.45;;
6529;SDS011;3298;42.688;23.366;2022-07-23T09:56:53;5.00;;;3.90;;
6529;SDS011;3298;42.688;23.366;2022-07-23T09:59:23;4.63;;;3.50;;
6529;SDS011;3298;42.688;23.366;2022-07-23T10:01:53;6.72;;;4.43;;
6529;SDS011;3298;42.688;23.366;2022-07-23T10:04:22;4.20;;;3.80;;
6529;SDS011;3298;42.688;23.366;2022-07-23T10:06:51;4.88;;;3.60;;
6529;SDS011;3298;42.688;23.366;2022-07-23T10:09:21;10.57;;;4.35;;
6529;SDS011;3298;42.688;23.366;2022-07-23T10:11:51;5.63;;;4.00;;
6529;SDS011;3298;42.688;23.366;2022-07-23T10:14:21;3.47;;;3.03;;
6529;SDS011;3298;42.688;23.366;2022-07-23T10:16:47;4.30;;;3.90;;
6529;SDS011;3298;42.688;23.366;2022-07-23T10:19:14;4.45;;;3.40;;
6529;SDS011;3298;42.688;23.366;2022-07-23T10:21:43;3.45;;;3.15;;
6529;SDS011;3298;42.688;23.366;2022-07-23T10:24:16;6.75;;;3.05;;
6529;SDS011;3298;42.688;23.366;2022-07-23T10:26:53;3.78;;;3.28;;
6529;SDS011;3298;42.688;23.366;2022-07-23T10:29:32;4.65;;;3.60;;
6529;SDS011;3298;42.688;23.366;2022-07-23T10:32:17;5.80;;;3.60;;
6529;SDS011;3298;42.688;23.366;2022-07-23T10:34:55;6.07;;;3.25;;
6529;SDS011;3298;42.688;23.366;2022-07-23T10:37:32;3.38;;;3.13;;
6529;SDS011;3298;42.688;23.366;2022-07-23T10:40:08;4.43;;;4.13;;
6529;SDS011;3298;42.688;23.366;2022-07-23T10:42:38;8.57;;;4.20;;
6529;SDS011;3298;42.688;23.366;2022-07-23T10:45:24;4.85;;;3.65;;
6529;SDS011;3298;42.688;23.366;2022-07-23T10:47:53;5.00;;;3.35;;
6529;SDS011;3298;42.688;23.366;2022-07-23T10:50:21;7.63;;;3.35;;
6529;SDS011;3298;42.688;23.366;2022-07-23T10:55:41;5.80;;;3.83;;
6529;SDS011;3298;42.688;23.366;2022-07-23T10:58:11;4.65;;;3.25;;
6529;SDS011;3298;42.688;23.366;2022-07-23T11:00:44;8.07;;;3.78;;
6529;SDS011;3298;42.688;23.366;2022-07-23T11:03:31;5.22;;;3.67;;
6529;SDS011;3298;42.688;23.366;2022-07-23T11:06:01;4.15;;;3.58;;
6529;SDS011;3298;42.688;23.366;2022-07-23T11:08:29;3.85;;;3.50;;
6529;SDS011;3298;42.688;23.366;2022-07-23T11:11:07;4.40;;;3.35;;
6529;SDS011;3298;42.688;23.366;2022-07-23T11:13:37;7.22;;;3.40;;
6529;SDS011;3298;42.688;23.366;2022-07-23T11:16:16;6.32;;;3.80;;
6529;SDS011;3298;42.688;23.366;2022-07-23T11:18:54;6.32;;;3.10;;
6529;SDS011;3298;42.688;23.366;2022-07-23T11:21:47;4.05;;;3.55;;
6529;SDS011;3298;42.688;23.366;2022-07-23T11:24:17;3.80;;;3.47;;
6529;SDS011;3298;42.688;23.366;2022-07-23T11:26:57;4.53;;;4.13;;
6529;SDS011;3298;42.688;23.366;2022-07-23T11:29:40;4.05;;;3.55;;
6529;SDS011;3298;42.688;23.366;2022-07-23T11:32:08;4.72;;;3.53;;
6529;SDS011;3298;42.688;23.366;2022-07-23T11:34:45;8.95;;;4.22;;
6529;SDS011;3298;42.688;23.366;2022-07-23T11:37:26;6.55;;;4.00;;
6529;SDS011;3298;42.688;23.366;2022-07-23T11:39:54;11.43;;;4.07;;
6529;SDS011;3298;42.688;23.366;2022-07-23T11:42:22;5.80;;;2.65;;
6529;SDS011;3298;42.688;23.366;2022-07-23T11:44:50;5.05;;;2.90;;
6529;SDS011;3298;42.688;23.366;2022-07-23T11:47:21;3.65;;;2.90;;
6529;SDS011;3298;42.688;23.366;2022-07-23T11:49:52;4.93;;;3.30;;
6529;SDS011;3298;42.688;23.366;2022-07-23T11:52:20;4.63;;;3.10;;
6529;SDS011;3298;42.688;23.366;2022-07-23T11:54:49;11.00;;;4.28;;
6529;SDS011;3298;42.688;23.366;2022-07-23T11:57:17;6.10;;;3.85;;
6529;SDS011;3298;42.688;23.366;2022-07-23T11:59:45;5.05;;;2.60;;
6529;SDS011;3298;42.688;23.366;2022-07-23T12:02:14;4.65;;;3.38;;
6529;SDS011;3298;42.688;23.366;2022-07-23T12:04:42;5.15;;;3.55;;
6529;SDS011;3298;42.688;23.366;2022-07-23T12:07:27;10.57;;;3.75;;
6529;SDS011;3298;42.688;23.366;2022-07-23T12:09:55;11.05;;;3.88;;
6529;SDS011;3298;42.688;23.366;2022-07-23T12:12:24;7.55;;;3.35;;
6529;SDS011;3298;42.688;23.366;2022-07-23T12:14:51;10.10;;;3.85;;
6529;SDS011;3298;42.688;23.366;2022-07-23T12:17:21;4.78;;;4.10;;
6529;SDS011;3298;42.688;23.366;2022-07-23T12:19:54;10.98;;;3.70;;
6529;SDS011;3298;42.688;23.366;2022-07-23T12:22:21;8.32;;;3.55;;
6529;SDS011;3298;42.688;23.366;2022-07-23T12:24:53;5.22;;;3.75;;
6529;SDS011;3298;42.688;23.366;2022-07-23T12:27:21;7.85;;;3.95;;
6529;SDS011;3298;42.688;23.366;2022-07-23T12:29:49;3.72;;;3.33;;
6529;SDS011;3298;42.688;23.366;2022-07-23T12:32:17;7.88;;;3.80;;
6529;SDS011;3298;42.688;23.366;2022-07-23T12:34:47;6.43;;;3.45;;
6529;SDS011;3298;42.688;23.366;2022-07-23T12:37:25;4.60;;;3.72;;
6529;SDS011;3298;42.688;23.366;2022-07-23T12:39:54;4.50;;;3.05;;
6529;SDS011;3298;42.688;23.366;2022-07-23T12:42:21;12.95;;;4.43;;
6529;SDS011;3298;42.688;23.366;2022-07-23T12:45:08;10.43;;;3.88;;
6529;SDS011;3298;42.688;23.366;2022-07-23T12:47:57;6.00;;;3.95;;
6529;SDS011;3298;42.688;23.366;2022-07-23T12:53:19;5.30;;;3.28;;
6529;SDS011;3298;42.688;23.366;2022-07-23T12:55:48;6.53;;;3.53;;
6529;SDS011;3298;42.688;23.366;2022-07-23T12:58:16;6.53;;;3.80;;
6529;SDS011;3298;42.688;23.366;2022-07-23T13:00:51;9.50;;;3.83;;
6529;SDS011;3298;42.688;23.366;2022-07-23T13:03:23;3.20;;;2.90;;
6529;SDS011;3298;42.688;23.366;2022-07-23T13:05:52;5.93;;;3.65;;
6529;SDS011;3298;42.688;23.366;2022-07-23T13:08:19;3.47;;;2.95;;
6529;SDS011;3298;42.688;23.366;2022-07-23T13:10:46;8.93;;;3.92;;
6529;SDS011;3298;42.688;23.366;2022-07-23T13:13:16;6.85;;;3.15;;
6529;SDS011;3298;42.688;23.366;2022-07-23T13:15:45;4.85;;;3.28;;
6529;SDS011;3298;42.688;23.366;2022-07-23T13:18:12;3.95;;;3.60;;
6529;SDS011;3298;42.688;23.366;2022-07-23T13:20:39;13.63;;;5.55;;
6529;SDS011;3298;42.688;23.366;2022-07-23T13:23:07;11.38;;;4.60;;
6529;SDS011;3298;42.688;23.366;2022-07-23T13:25:34;8.30;;;3.33;;
6529;SDS011;3298;42.688;23.366;2022-07-23T13:28:01;3.80;;;3.28;;
6529;SDS011;3298;42.688;23.366;2022-07-23T13:30:28;9.35;;;3.78;;
6529;SDS011;3298;42.688;23.366;2022-07-23T13:32:55;4.82;;;3.67;;
6529;SDS011;3298;42.688;23.366;2022-07-23T13:35:22;4.85;;;3.60;;
6529;SDS011;3298;42.688;23.366;2022-07-23T13:37:49;7.03;;;3.42;;
6529;SDS011;3298;42.688;23.366;2022-07-23T13:40:17;3.55;;;3.13;;
6529;SDS011;3298;42.688;23.366;2022-07-23T13:42:44;5.03;;;3.10;;
6529;SDS011;3298;42.688;23.366;2022-07-23T13:45:11;10.90;;;3.28;;
6529;SDS011;3298;42.688;23.366;2022-07-23T13:47:38;8.43;;;3.60;;
6529;SDS011;3298;42.688;23.366;2022-07-23T13:50:05;5.85;;;3.50;;
6529;SDS011;3298;42.688;23.366;2022-07-23T13:52:32;9.27;;;3.47;;
6529;SDS011;3298;42.688;23.366;2022-07-23T13:55:00;7.63;;;3.92;;
6529;SDS011;3298;42.688;23.366;2022-07-23T13:57:28;10.40;;;3.70;;
6529;SDS011;3298;42.688;23.366;2022-07-23T13:59:55;7.95;;;2.80;;
6529;SDS011;3298;42.688;23.366;2022-07-23T14:02:22;11.52;;;3.47;;
6529;SDS011;3298;42.688;23.366;2022-07-23T14:04:49;6.82;;;3.58;;
6529;SDS011;3298;42.688;23.366;2022-07-23T14:07:16;6.47;;;3.47;;
6529;SDS011;3298;42.688;23.366;2022-07-23T14:09:43;4.28;;;3.22;;
6529;SDS011;3298;42.688;23.366;2022-07-23T14:12:10;7.15;;;3.10;;
6529;SDS011;3298;42.688;23.366;2022-07-23T14:14:38;4.82;;;3.92;;
6529;SDS011;3298;42.688;23.366;2022-07-23T14:17:04;5.93;;;3.13;;
6529;SDS011;3298;42.688;23.366;2022-07-23T14:19:31;7.55;;;3.70;;
6529;SDS011;3298;42.688;23.366;2022-07-23T14:21:58;6.53;;;3.33;;
6529;SDS011;3298;42.688;23.366;2022-07-23T14:24:25;7.75;;;2.88;;
6529;SDS011;3298;42.688;23.366;2022-07-23T14:26:52;3.88;;;3.20;;
6529;SDS011;3298;42.688;23.366;2022-07-23T14:29:19;4.15;;;2.58;;
6529;SDS011;3298;42.688;23.366;2022-07-23T14:31:47;7.22;;;3.92;;
6529;SDS011;3298;42.688;23.366;2022-07-23T14:34:14;7.10;;;4.00;;
6529;SDS011;3298;42.688;23.366;2022-07-23T14:36:41;8.40;;;3.80;;
6529;SDS011;3298;42.688;23.366;2022-07-23T14:39:08;6.75;;;3.50;;
6529;SDS011;3298;42.688;23.366;2022-07-23T14:41:37;4.22;;;3.38;;
6529;SDS011;3298;42.688;23.366;2022-07-23T14:44:04;6.65;;;3.53;;
6529;SDS011;3298;42.688;23.366;2022-07-23T14:46:31;8.30;;;3.08;;
6529;SDS011;3298;42.688;23.366;2022-07-23T14:48:59;7.60;;;3.05;;
6529;SDS011;3298;42.688;23.366;2022-07-23T14:51:26;5.90;;;3.65;;
6529;SDS011;3298;42.688;23.366;2022-07-23T14:53:53;3.75;;;3.08;;
6529;SDS011;3298;42.688;23.366;2022-07-23T14:56:20;3.38;;;3.08;;
6529;SDS011;3298;42.688;23.366;2022-07-23T14:58:47;15.30;;;3.88;;
6529;SDS011;3298;42.688;23.366;2022-07-23T15:01:14;7.50;;;4.05;;
6529;SDS011;3298;42.688;23.366;2022-07-23T15:03:41;6.05;;;3.08;;
6529;SDS011;3298;42.688;23.366;2022-07-23T15:06:09;5.88;;;4.00;;
6529;SDS011;3298;42.688;23.366;2022-07-23T15:08:37;4.90;;;3.20;;
6529;SDS011;3298;42.688;23.366;2022-07-23T15:11:03;3.60;;;3.03;;
6529;SDS011;3298;42.688;23.366;2022-07-23T15:13:30;4.32;;;3.25;;